sensor_id;sensor_type;location;lat;lon;timestamp;temperature;humidity
26541;DHT22;14206;50.202;10.948;2023-06-26T00:01:40;19.50;85.10
26541;DHT22;14206;50.202;10.948;2023-06-26T00:04:07;19.40;85.80
26541;DHT22;14206;50.202;10.948;2023-06-26T00:06:34;19.40;85.50
26541;DHT22;14206;50.202;10.948;2023-06-26T00:09:02;19.40;85.90
26541;DHT22;14206;50.202;10.948;2023-06-26T00:11:29;19.30;85.80
26541;DHT22;14206;50.202;10.948;2023-06-26T00:14:00;19.30;86.30
26541;DHT22;14206;50.202;10.948;2023-06-26T00:16:28;19.20;86.30
26541;DHT22;14206;50.202;10.948;2023-06-26T00:18:54;19.20;85.80
26541;DHT22;14206;50.202;10.948;2023-06-26T00:21:21;19.20;85.80
26541;DHT22;14206;50.202;10.948;2023-06-26T00:23:48;19.10;86.50
26541;DHT22;14206;50.202;10.948;2023-06-26T00:26:15;19.10;86.50
26541;DHT22;14206;50.202;10.948;2023-06-26T00:28:42;19.00;86.60
26541;DHT22;14206;50.202;10.948;2023-06-26T00:31:08;19.00;86.40
26541;DHT22;14206;50.202;10.948;2023-06-26T00:33:35;19.00;86.50
26541;DHT22;14206;50.202;10.948;2023-06-26T00:36:02;18.90;86.80
26541;DHT22;14206;50.202;10.948;2023-06-26T00:38:30;18.90;87.30
26541;DHT22;14206;50.202;10.948;2023-06-26T00:40:57;18.90;87.40
26541;DHT22;14206;50.202;10.948;2023-06-26T00:43:24;18.90;87.10
26541;DHT22;14206;50.202;10.948;2023-06-26T00:45:51;18.90;87.50
26541;DHT22;14206;50.202;10.948;2023-06-26T00:48:19;18.80;87.30
26541;DHT22;14206;50.202;10.948;2023-06-26T00:50:46;18.80;87.00
26541;DHT22;14206;50.202;10.948;2023-06-26T00:53:13;18.80;86.80
26541;DHT22;14206;50.202;10.948;2023-06-26T00:55:40;18.80;87.40
26541;DHT22;14206;50.202;10.948;2023-06-26T00:58:08;18.70;88.00
26541;DHT22;14206;50.202;10.948;2023-06-26T01:00:35;18.70;87.80
26541;DHT22;14206;50.202;10.948;2023-06-26T01:03:02;18.70;87.70
26541;DHT22;14206;50.202;10.948;2023-06-26T01:08:08;18.60;88.30
26541;DHT22;14206;50.202;10.948;2023-06-26T01:10:35;18.60;88.60
26541;DHT22;14206;50.202;10.948;2023-06-26T01:13:03;18.60;88.60
26541;DHT22;14206;50.202;10.948;2023-06-26T01:15:30;18.50;88.80
26541;DHT22;14206;50.202;10.948;2023-06-26T01:17:58;18.50;88.40
26541;DHT22;14206;50.202;10.948;2023-06-26T01:20:36;18.50;88.80
26541;DHT22;14206;50.202;10.948;2023-06-26T01:25:48;18.40;88.60
26541;DHT22;14206;50.202;10.948;2023-06-26T01:28:19;18.40;89.40
26541;DHT22;14206;50.202;10.948;2023-06-26T01:30:47;18.40;89.40
26541;DHT22;14206;50.202;10.948;2023-06-26T01:33:16;18.30;89.30
26541;DHT22;14206;50.202;10.948;2023-06-26T01:35:43;18.30;89.10
26541;DHT22;14206;50.202;10.948;2023-06-26T01:38:15;18.30;89.30
26541;DHT22;14206;50.202;10.948;2023-06-26T01:40:42;18.30;89.80
26541;DHT22;14206;50.202;10.948;2023-06-26T01:46:04;18.20;90.00
26541;DHT22;14206;50.202;10.948;2023-06-26T01:48:38;18.20;89.80
26541;DHT22;14206;50.202;10.948;2023-06-26T01:51:07;18.20;89.70
26541;DHT22;14206;50.202;10.948;2023-06-26T01:53:38;18.20;89.40
26541;DHT22;14206;50.202;10.948;2023-06-26T01:56:13;18.20;89.70
26541;DHT22;14206;50.202;10.948;2023-06-26T01:58:43;18.20;90.20
26541;DHT22;14206;50.202;10.948;2023-06-26T02:01:12;18.10;90.00
26541;DHT22;14206;50.202;10.948;2023-06-26T02:03:39;18.10;90.20
26541;DHT22;14206;50.202;10.948;2023-06-26T02:06:07;18.10;90.20
26541;DHT22;14206;50.202;10.948;2023-06-26T02:08:33;18.10;90.00
26541;DHT22;14206;50.202;10.948;2023-06-26T02:11:00;18.00;90.00
26541;DHT22;14206;50.202;10.948;2023-06-26T02:13:27;18.00;89.90
26541;DHT22;14206;50.202;10.948;2023-06-26T02:15:54;18.00;89.80
26541;DHT22;14206;50.202;10.948;2023-06-26T02:18:21;18.00;89.80
26541;DHT22;14206;50.202;10.948;2023-06-26T02:20:49;18.00;89.70
26541;DHT22;14206;50.202;10.948;2023-06-26T02:23:16;18.00;89.90
26541;DHT22;14206;50.202;10.948;2023-06-26T02:25:42;18.00;90.40
26541;DHT22;14206;50.202;10.948;2023-06-26T02:28:09;18.00;90.20
26541;DHT22;14206;50.202;10.948;2023-06-26T02:30:36;18.00;90.50
26541;DHT22;14206;50.202;10.948;2023-06-26T02:33:03;17.90;90.20
26541;DHT22;14206;50.202;10.948;2023-06-26T02:35:30;17.90;90.30
26541;DHT22;14206;50.202;10.948;2023-06-26T02:37:59;17.90;90.60
26541;DHT22;14206;50.202;10.948;2023-06-26T02:40:26;17.90;90.90
26541;DHT22;14206;50.202;10.948;2023-06-26T02:42:53;17.80;91.10
26541;DHT22;14206;50.202;10.948;2023-06-26T02:45:20;17.70;91.20
26541;DHT22;14206;50.202;10.948;2023-06-26T02:47:47;17.70;91.40
26541;DHT22;14206;50.202;10.948;2023-06-26T02:50:14;17.70;91.70
26541;DHT22;14206;50.202;10.948;2023-06-26T02:53:16;17.60;91.30
26541;DHT22;14206;50.202;10.948;2023-06-26T02:55:45;17.60;91.20
26541;DHT22;14206;50.202;10.948;2023-06-26T02:58:15;17.60;91.20
26541;DHT22;14206;50.202;10.948;2023-06-26T03:00:42;17.60;91.20
26541;DHT22;14206;50.202;10.948;2023-06-26T03:03:14;17.50;91.20
26541;DHT22;14206;50.202;10.948;2023-06-26T03:05:40;17.50;91.10
26541;DHT22;14206;50.202;10.948;2023-06-26T03:08:08;17.50;91.70
26541;DHT22;14206;50.202;10.948;2023-06-26T03:10:35;17.40;91.80
26541;DHT22;14206;50.202;10.948;2023-06-26T03:13:02;17.40;91.70
26541;DHT22;14206;50.202;10.948;2023-06-26T03:15:29;17.40;91.80
26541;DHT22;14206;50.202;10.948;2023-06-26T03:17:56;17.40;92.00
26541;DHT22;14206;50.202;10.948;2023-06-26T03:20:26;17.40;92.00
26541;DHT22;14206;50.202;10.948;2023-06-26T03:22:57;17.40;92.10
26541;DHT22;14206;50.202;10.948;2023-06-26T03:25:24;17.40;92.00
26541;DHT22;14206;50.202;10.948;2023-06-26T03:28:02;17.40;91.90
26541;DHT22;14206;50.202;10.948;2023-06-26T03:30:30;17.40;92.00
26541;DHT22;14206;50.202;10.948;2023-06-26T03:32:57;17.40;92.30
26541;DHT22;14206;50.202;10.948;2023-06-26T03:35:24;17.40;91.90
26541;DHT22;14206;50.202;10.948;2023-06-26T03:37:51;17.40;91.80
26541;DHT22;14206;50.202;10.948;2023-06-26T03:40:18;17.40;91.80
26541;DHT22;14206;50.202;10.948;2023-06-26T03:42:47;17.40;91.70
26541;DHT22;14206;50.202;10.948;2023-06-26T03:45:14;17.40;91.80
26541;DHT22;14206;50.202;10.948;2023-06-26T03:47:43;17.50;91.90
26541;DHT22;14206;50.202;10.948;2023-06-26T03:50:09;17.50;92.50
26541;DHT22;14206;50.202;10.948;2023-06-26T03:52:36;17.50;92.40
26541;DHT22;14206;50.202;10.948;2023-06-26T03:55:04;17.50;92.20
26541;DHT22;14206;50.202;10.948;2023-06-26T03:57:31;17.50;92.30
26541;DHT22;14206;50.202;10.948;2023-06-26T03:59:57;17.50;92.20
26541;DHT22;14206;50.202;10.948;2023-06-26T04:02:24;17.60;92.20
26541;DHT22;14206;50.202;10.948;2023-06-26T04:04:51;17.70;92.20
26541;DHT22;14206;50.202;10.948;2023-06-26T04:07:20;17.70;92.30
26541;DHT22;14206;50.202;10.948;2023-06-26T04:09:46;17.70;92.40
26541;DHT22;14206;50.202;10.948;2023-06-26T04:12:13;17.80;92.40
26541;DHT22;14206;50.202;10.948;2023-06-26T04:14:40;17.90;92.20
26541;DHT22;14206;50.202;10.948;2023-06-26T04:17:10;17.90;92.10
26541;DHT22;14206;50.202;10.948;2023-06-26T04:19:37;18.00;92.20
26541;DHT22;14206;50.202;10.948;2023-06-26T04:22:04;18.10;92.20
26541;DHT22;14206;50.202;10.948;2023-06-26T04:24:31;18.10;92.30
26541;DHT22;14206;50.202;10.948;2023-06-26T04:26:58;18.20;92.50
26541;DHT22;14206;50.202;10.948;2023-06-26T04:29:28;18.30;93.00
26541;DHT22;14206;50.202;10.948;2023-06-26T04:31:54;18.40;92.70
26541;DHT22;14206;50.202;10.948;2023-06-26T04:34:28;18.50;92.40
26541;DHT22;14206;50.202;10.948;2023-06-26T04:36:59;18.60;92.50
26541;DHT22;14206;50.202;10.948;2023-06-26T04:39:25;18.70;92.30
26541;DHT22;14206;50.202;10.948;2023-06-26T04:41:53;18.70;91.80
26541;DHT22;14206;50.202;10.948;2023-06-26T04:44:19;18.80;91.50
26541;DHT22;14206;50.202;10.948;2023-06-26T04:46:46;18.90;91.50
26541;DHT22;14206;50.202;10.948;2023-06-26T04:49:13;19.00;90.80
26541;DHT22;14206;50.202;10.948;2023-06-26T04:51:44;19.10;90.60
26541;DHT22;14206;50.202;10.948;2023-06-26T04:54:11;19.20;90.50
26541;DHT22;14206;50.202;10.948;2023-06-26T04:56:38;19.40;90.10
26541;DHT22;14206;50.202;10.948;2023-06-26T04:59:08;19.40;90.00
26541;DHT22;14206;50.202;10.948;2023-06-26T05:01:39;19.60;89.50
26541;DHT22;14206;50.202;10.948;2023-06-26T05:04:07;19.70;88.90
26541;DHT22;14206;50.202;10.948;2023-06-26T05:06:34;19.80;88.70
26541;DHT22;14206;50.202;10.948;2023-06-26T05:09:01;19.80;88.60
26541;DHT22;14206;50.202;10.948;2023-06-26T05:11:27;19.90;88.70
26541;DHT22;14206;50.202;10.948;2023-06-26T05:13:54;20.00;88.40
26541;DHT22;14206;50.202;10.948;2023-06-26T05:16:21;20.10;88.10
26541;DHT22;14206;50.202;10.948;2023-06-26T05:18:48;20.20;88.20
26541;DHT22;14206;50.202;10.948;2023-06-26T05:21:16;20.30;87.90
26541;DHT22;14206;50.202;10.948;2023-06-26T05:23:43;20.40;87.10
26541;DHT22;14206;50.202;10.948;2023-06-26T05:26:11;20.60;86.00
26541;DHT22;14206;50.202;10.948;2023-06-26T05:28:40;20.70;86.10
26541;DHT22;14206;50.202;10.948;2023-06-26T05:31:07;20.80;85.70
26541;DHT22;14206;50.202;10.948;2023-06-26T05:33:35;21.00;84.90
26541;DHT22;14206;50.202;10.948;2023-06-26T05:36:04;21.20;84.90
26541;DHT22;14206;50.202;10.948;2023-06-26T05:38:32;21.40;83.90
26541;DHT22;14206;50.202;10.948;2023-06-26T05:40:59;21.80;83.40
26541;DHT22;14206;50.202;10.948;2023-06-26T05:43:26;22.40;82.00
26541;DHT22;14206;50.202;10.948;2023-06-26T05:45:56;23.30;80.10
26541;DHT22;14206;50.202;10.948;2023-06-26T05:48:24;24.30;76.90
26541;DHT22;14206;50.202;10.948;2023-06-26T05:50:51;25.20;74.20
26541;DHT22;14206;50.202;10.948;2023-06-26T05:53:18;26.10;72.70
26541;DHT22;14206;50.202;10.948;2023-06-26T05:55:46;26.90;70.30
26541;DHT22;14206;50.202;10.948;2023-06-26T05:58:13;27.70;68.60
26541;DHT22;14206;50.202;10.948;2023-06-26T06:00:41;28.40;67.10
26541;DHT22;14206;50.202;10.948;2023-06-26T06:03:10;29.10;65.60
26541;DHT22;14206;50.202;10.948;2023-06-26T06:05:37;29.80;64.20
26541;DHT22;14206;50.202;10.948;2023-06-26T06:08:04;30.40;61.50
26541;DHT22;14206;50.202;10.948;2023-06-26T06:10:31;31.00;61.20
26541;DHT22;14206;50.202;10.948;2023-06-26T06:12:58;31.60;59.60
26541;DHT22;14206;50.202;10.948;2023-06-26T06:15:25;32.10;58.20
26541;DHT22;14206;50.202;10.948;2023-06-26T06:17:56;32.60;55.80
26541;DHT22;14206;50.202;10.948;2023-06-26T06:20:24;33.00;56.60
26541;DHT22;14206;50.202;10.948;2023-06-26T06:22:51;33.50;55.20
26541;DHT22;14206;50.202;10.948;2023-06-26T06:25:18;34.20;54.80
26541;DHT22;14206;50.202;10.948;2023-06-26T06:27:44;34.60;52.10
26541;DHT22;14206;50.202;10.948;2023-06-26T06:30:12;34.90;51.90
26541;DHT22;14206;50.202;10.948;2023-06-26T06:32:39;35.10;52.10
26541;DHT22;14206;50.202;10.948;2023-06-26T06:35:06;35.50;50.40
26541;DHT22;14206;50.202;10.948;2023-06-26T06:37:37;35.60;49.90
26541;DHT22;14206;50.202;10.948;2023-06-26T06:40:09;35.70;49.30
26541;DHT22;14206;50.202;10.948;2023-06-26T06:42:37;35.50;48.20
26541;DHT22;14206;50.202;10.948;2023-06-26T06:45:05;35.30;49.10
26541;DHT22;14206;50.202;10.948;2023-06-26T06:47:32;35.30;48.50
26541;DHT22;14206;50.202;10.948;2023-06-26T06:50:02;35.40;48.60
26541;DHT22;14206;50.202;10.948;2023-06-26T06:52:39;35.50;49.00
26541;DHT22;14206;50.202;10.948;2023-06-26T06:55:07;35.50;47.20
26541;DHT22;14206;50.202;10.948;2023-06-26T06:57:36;35.60;47.20
26541;DHT22;14206;50.202;10.948;2023-06-26T07:00:06;35.80;46.90
26541;DHT22;14206;50.202;10.948;2023-06-26T07:02:42;35.90;45.90
26541;DHT22;14206;50.202;10.948;2023-06-26T07:05:11;35.90;46.60
26541;DHT22;14206;50.202;10.948;2023-06-26T07:07:39;36.10;46.00
26541;DHT22;14206;50.202;10.948;2023-06-26T07:10:08;36.20;46.20
26541;DHT22;14206;50.202;10.948;2023-06-26T07:12:36;36.40;45.40
26541;DHT22;14206;50.202;10.948;2023-06-26T07:15:03;36.70;45.20
26541;DHT22;14206;50.202;10.948;2023-06-26T07:17:32;37.00;44.10
26541;DHT22;14206;50.202;10.948;2023-06-26T07:20:00;37.30;45.60
26541;DHT22;14206;50.202;10.948;2023-06-26T07:22:27;37.80;44.50
26541;DHT22;14206;50.202;10.948;2023-06-26T07:24:54;38.20;42.70
26541;DHT22;14206;50.202;10.948;2023-06-26T07:27:21;38.30;41.50
26541;DHT22;14206;50.202;10.948;2023-06-26T07:29:48;38.40;42.40
26541;DHT22;14206;50.202;10.948;2023-06-26T07:32:15;38.60;42.00
26541;DHT22;14206;50.202;10.948;2023-06-26T07:34:42;38.60;40.60
26541;DHT22;14206;50.202;10.948;2023-06-26T07:37:08;38.60;41.00
26541;DHT22;14206;50.202;10.948;2023-06-26T07:39:35;38.50;41.00
26541;DHT22;14206;50.202;10.948;2023-06-26T07:42:02;38.40;42.10
26541;DHT22;14206;50.202;10.948;2023-06-26T07:44:29;38.40;42.00
26541;DHT22;14206;50.202;10.948;2023-06-26T07:46:56;38.10;41.60
26541;DHT22;14206;50.202;10.948;2023-06-26T07:49:23;38.10;42.60
26541;DHT22;14206;50.202;10.948;2023-06-26T07:51:50;38.30;41.50
26541;DHT22;14206;50.202;10.948;2023-06-26T07:54:17;38.40;41.40
26541;DHT22;14206;50.202;10.948;2023-06-26T07:56:55;38.70;41.70
26541;DHT22;14206;50.202;10.948;2023-06-26T07:59:23;39.20;40.90
26541;DHT22;14206;50.202;10.948;2023-06-26T08:01:52;39.60;39.70
26541;DHT22;14206;50.202;10.948;2023-06-26T08:04:20;39.90;39.40
26541;DHT22;14206;50.202;10.948;2023-06-26T08:06:52;40.40;40.40
26541;DHT22;14206;50.202;10.948;2023-06-26T08:09:21;40.80;38.80
26541;DHT22;14206;50.202;10.948;2023-06-26T08:11:48;41.20;39.60
26541;DHT22;14206;50.202;10.948;2023-06-26T08:14:15;41.80;36.90
26541;DHT22;14206;50.202;10.948;2023-06-26T08:16:43;42.20;38.10
26541;DHT22;14206;50.202;10.948;2023-06-26T08:19:14;42.70;36.70
26541;DHT22;14206;50.202;10.948;2023-06-26T08:21:42;42.90;35.50
26541;DHT22;14206;50.202;10.948;2023-06-26T08:24:10;43.20;35.40
26541;DHT22;14206;50.202;10.948;2023-06-26T08:26:37;43.60;35.10
26541;DHT22;14206;50.202;10.948;2023-06-26T08:29:04;44.00;34.10
26541;DHT22;14206;50.202;10.948;2023-06-26T08:31:38;44.30;34.50
26541;DHT22;14206;50.202;10.948;2023-06-26T08:34:06;44.90;33.80
26541;DHT22;14206;50.202;10.948;2023-06-26T08:36:36;44.90;33.10
26541;DHT22;14206;50.202;10.948;2023-06-26T08:39:03;44.80;33.70
26541;DHT22;14206;50.202;10.948;2023-06-26T08:41:32;44.90;33.40
26541;DHT22;14206;50.202;10.948;2023-06-26T08:43:59;44.90;32.60
26541;DHT22;14206;50.202;10.948;2023-06-26T08:46:26;44.50;33.20
26541;DHT22;14206;50.202;10.948;2023-06-26T08:48:56;44.40;33.20
26541;DHT22;14206;50.202;10.948;2023-06-26T08:51:27;44.50;33.60
26541;DHT22;14206;50.202;10.948;2023-06-26T08:53:59;44.80;33.60
26541;DHT22;14206;50.202;10.948;2023-06-26T08:56:40;45.00;34.30
26541;DHT22;14206;50.202;10.948;2023-06-26T08:59:08;45.00;32.60
26541;DHT22;14206;50.202;10.948;2023-06-26T09:01:37;45.20;34.20
26541;DHT22;14206;50.202;10.948;2023-06-26T09:04:05;45.20;33.40
26541;DHT22;14206;50.202;10.948;2023-06-26T09:06:33;45.20;32.60
26541;DHT22;14206;50.202;10.948;2023-06-26T09:09:01;45.20;33.80
26541;DHT22;14206;50.202;10.948;2023-06-26T09:11:30;45.30;32.90
26541;DHT22;14206;50.202;10.948;2023-06-26T09:13:57;45.50;32.60
26541;DHT22;14206;50.202;10.948;2023-06-26T09:16:25;45.50;31.70
26541;DHT22;14206;50.202;10.948;2023-06-26T09:18:55;45.60;32.50
26541;DHT22;14206;50.202;10.948;2023-06-26T09:21:22;45.70;33.40
26541;DHT22;14206;50.202;10.948;2023-06-26T09:23:52;45.90;32.80
26541;DHT22;14206;50.202;10.948;2023-06-26T09:26:21;45.90;32.10
26541;DHT22;14206;50.202;10.948;2023-06-26T09:28:49;45.50;32.50
26541;DHT22;14206;50.202;10.948;2023-06-26T09:31:17;45.20;31.70
26541;DHT22;14206;50.202;10.948;2023-06-26T09:34:04;44.90;31.90
26541;DHT22;14206;50.202;10.948;2023-06-26T09:36:33;44.70;33.00
26541;DHT22;14206;50.202;10.948;2023-06-26T09:39:07;45.00;32.00
26541;DHT22;14206;50.202;10.948;2023-06-26T09:41:38;45.10;32.50
26541;DHT22;14206;50.202;10.948;2023-06-26T09:44:05;45.20;32.40
26541;DHT22;14206;50.202;10.948;2023-06-26T09:46:33;45.20;33.70
26541;DHT22;14206;50.202;10.948;2023-06-26T09:49:08;45.60;31.80
26541;DHT22;14206;50.202;10.948;2023-06-26T09:51:39;45.70;32.00
26541;DHT22;14206;50.202;10.948;2023-06-26T09:54:07;45.90;32.80
26541;DHT22;14206;50.202;10.948;2023-06-26T09:56:34;46.10;31.70
26541;DHT22;14206;50.202;10.948;2023-06-26T09:59:03;46.40;31.80
26541;DHT22;14206;50.202;10.948;2023-06-26T10:01:31;46.50;32.10
26541;DHT22;14206;50.202;10.948;2023-06-26T10:03:59;46.70;31.50
26541;DHT22;14206;50.202;10.948;2023-06-26T10:06:34;47.00;30.80
26541;DHT22;14206;50.202;10.948;2023-06-26T10:09:03;46.90;30.40
26541;DHT22;14206;50.202;10.948;2023-06-26T10:14:12;47.40;30.30
26541;DHT22;14206;50.202;10.948;2023-06-26T10:16:44;47.30;30.80
26541;DHT22;14206;50.202;10.948;2023-06-26T10:19:14;47.20;31.10
26541;DHT22;14206;50.202;10.948;2023-06-26T10:21:43;47.40;32.00
26541;DHT22;14206;50.202;10.948;2023-06-26T10:24:12;47.50;31.40
26541;DHT22;14206;50.202;10.948;2023-06-26T10:26:44;47.40;30.70
26541;DHT22;14206;50.202;10.948;2023-06-26T10:29:12;47.40;30.90
26541;DHT22;14206;50.202;10.948;2023-06-26T10:31:44;47.70;30.80
26541;DHT22;14206;50.202;10.948;2023-06-26T10:34:12;47.70;28.50
26541;DHT22;14206;50.202;10.948;2023-06-26T10:36:40;47.40;28.50
26541;DHT22;14206;50.202;10.948;2023-06-26T10:39:07;46.80;28.30
26541;DHT22;14206;50.202;10.948;2023-06-26T10:41:39;45.90;29.30
26541;DHT22;14206;50.202;10.948;2023-06-26T10:44:22;45.60;29.60
26541;DHT22;14206;50.202;10.948;2023-06-26T10:46:52;45.90;31.30
26541;DHT22;14206;50.202;10.948;2023-06-26T10:49:20;46.00;31.10
26541;DHT22;14206;50.202;10.948;2023-06-26T10:51:48;46.20;30.10
26541;DHT22;14206;50.202;10.948;2023-06-26T10:54:19;46.50;30.10
26541;DHT22;14206;50.202;10.948;2023-06-26T10:56:50;46.70;28.40
26541;DHT22;14206;50.202;10.948;2023-06-26T10:59:18;46.70;28.40
26541;DHT22;14206;50.202;10.948;2023-06-26T11:01:54;46.80;28.50
26541;DHT22;14206;50.202;10.948;2023-06-26T11:04:44;47.00;29.10
26541;DHT22;14206;50.202;10.948;2023-06-26T11:09:58;46.80;28.50
26541;DHT22;14206;50.202;10.948;2023-06-26T11:15:12;46.30;30.90
26541;DHT22;14206;50.202;10.948;2023-06-26T11:17:41;46.40;31.50
26541;DHT22;14206;50.202;10.948;2023-06-26T11:20:13;46.50;30.40
26541;DHT22;14206;50.202;10.948;2023-06-26T11:22:41;46.60;29.60
26541;DHT22;14206;50.202;10.948;2023-06-26T11:25:09;46.70;29.60
26541;DHT22;14206;50.202;10.948;2023-06-26T11:30:05;46.70;30.80
26541;DHT22;14206;50.202;10.948;2023-06-26T11:32:32;46.70;30.20
26541;DHT22;14206;50.202;10.948;2023-06-26T11:34:59;46.80;28.80
26541;DHT22;14206;50.202;10.948;2023-06-26T11:37:26;46.60;30.00
26541;DHT22;14206;50.202;10.948;2023-06-26T11:39:54;46.50;30.30
26541;DHT22;14206;50.202;10.948;2023-06-26T11:42:21;46.30;29.10
26541;DHT22;14206;50.202;10.948;2023-06-26T11:44:48;46.10;29.60
26541;DHT22;14206;50.202;10.948;2023-06-26T11:47:16;45.80;30.10
26541;DHT22;14206;50.202;10.948;2023-06-26T11:49:48;45.70;30.90
26541;DHT22;14206;50.202;10.948;2023-06-26T11:52:16;45.80;30.70
26541;DHT22;14206;50.202;10.948;2023-06-26T11:54:43;46.00;30.00
26541;DHT22;14206;50.202;10.948;2023-06-26T11:57:14;45.70;29.80
26541;DHT22;14206;50.202;10.948;2023-06-26T11:59:42;44.90;28.90
26541;DHT22;14206;50.202;10.948;2023-06-26T12:02:15;44.60;30.70
26541;DHT22;14206;50.202;10.948;2023-06-26T12:04:44;44.30;30.70
26541;DHT22;14206;50.202;10.948;2023-06-26T12:07:12;43.60;32.70
26541;DHT22;14206;50.202;10.948;2023-06-26T12:09:45;42.80;32.50
26541;DHT22;14206;50.202;10.948;2023-06-26T12:12:14;41.90;33.90
26541;DHT22;14206;50.202;10.948;2023-06-26T12:14:42;41.10;34.60
26541;DHT22;14206;50.202;10.948;2023-06-26T12:17:11;41.30;35.80
26541;DHT22;14206;50.202;10.948;2023-06-26T12:19:39;41.40;34.70
26541;DHT22;14206;50.202;10.948;2023-06-26T12:22:06;41.40;34.10
26541;DHT22;14206;50.202;10.948;2023-06-26T12:24:36;40.60;34.00
26541;DHT22;14206;50.202;10.948;2023-06-26T12:27:08;39.90;36.60
26541;DHT22;14206;50.202;10.948;2023-06-26T12:29:37;39.60;35.50
26541;DHT22;14206;50.202;10.948;2023-06-26T12:32:07;39.50;36.20
26541;DHT22;14206;50.202;10.948;2023-06-26T12:34:37;39.80;38.00
26541;DHT22;14206;50.202;10.948;2023-06-26T12:37:06;39.40;36.90
26541;DHT22;14206;50.202;10.948;2023-06-26T12:42:24;38.70;38.30
26541;DHT22;14206;50.202;10.948;2023-06-26T12:44:52;38.30;38.00
26541;DHT22;14206;50.202;10.948;2023-06-26T12:47:25;38.00;41.10
26541;DHT22;14206;50.202;10.948;2023-06-26T12:49:54;37.80;40.20
26541;DHT22;14206;50.202;10.948;2023-06-26T12:52:21;37.30;40.10
26541;DHT22;14206;50.202;10.948;2023-06-26T12:54:55;36.90;39.50
26541;DHT22;14206;50.202;10.948;2023-06-26T12:57:23;36.50;40.20
26541;DHT22;14206;50.202;10.948;2023-06-26T12:59:51;36.20;40.30
26541;DHT22;14206;50.202;10.948;2023-06-26T13:02:18;36.20;41.90
26541;DHT22;14206;50.202;10.948;2023-06-26T13:04:46;36.00;41.40
26541;DHT22;14206;50.202;10.948;2023-06-26T13:07:13;35.80;41.20
26541;DHT22;14206;50.202;10.948;2023-06-26T13:09:40;35.70;42.20
26541;DHT22;14206;50.202;10.948;2023-06-26T13:12:08;35.50;41.90
26541;DHT22;14206;50.202;10.948;2023-06-26T13:14:35;35.20;42.60
26541;DHT22;14206;50.202;10.948;2023-06-26T13:17:02;34.90;42.40
26541;DHT22;14206;50.202;10.948;2023-06-26T13:19:33;34.60;43.70
26541;DHT22;14206;50.202;10.948;2023-06-26T13:22:00;34.60;43.40
26541;DHT22;14206;50.202;10.948;2023-06-26T13:24:28;34.40;43.20
26541;DHT22;14206;50.202;10.948;2023-06-26T13:26:55;34.20;42.80
26541;DHT22;14206;50.202;10.948;2023-06-26T13:29:22;33.90;44.10
26541;DHT22;14206;50.202;10.948;2023-06-26T13:31:49;33.80;44.60
26541;DHT22;14206;50.202;10.948;2023-06-26T13:34:23;33.90;45.20
26541;DHT22;14206;50.202;10.948;2023-06-26T13:36:50;34.00;45.90
26541;DHT22;14206;50.202;10.948;2023-06-26T13:39:17;34.10;45.70
26541;DHT22;14206;50.202;10.948;2023-06-26T13:41:45;34.00;46.50
26541;DHT22;14206;50.202;10.948;2023-06-26T13:44:11;33.90;47.20
26541;DHT22;14206;50.202;10.948;2023-06-26T13:46:48;33.80;47.90
26541;DHT22;14206;50.202;10.948;2023-06-26T13:49:15;33.80;46.70
26541;DHT22;14206;50.202;10.948;2023-06-26T13:51:41;33.60;49.00
26541;DHT22;14206;50.202;10.948;2023-06-26T13:54:13;33.40;48.10
26541;DHT22;14206;50.202;10.948;2023-06-26T13:56:40;33.20;48.70
26541;DHT22;14206;50.202;10.948;2023-06-26T13:59:07;33.20;48.80
26541;DHT22;14206;50.202;10.948;2023-06-26T14:01:34;33.20;49.80
26541;DHT22;14206;50.202;10.948;2023-06-26T14:04:03;33.10;49.60
26541;DHT22;14206;50.202;10.948;2023-06-26T14:06:32;33.00;49.40
26541;DHT22;14206;50.202;10.948;2023-06-26T14:08:59;33.00;49.50
26541;DHT22;14206;50.202;10.948;2023-06-26T14:11:26;32.90;49.90
26541;DHT22;14206;50.202;10.948;2023-06-26T14:13:54;32.90;49.80
26541;DHT22;14206;50.202;10.948;2023-06-26T14:16:20;32.90;50.50
26541;DHT22;14206;50.202;10.948;2023-06-26T14:18:47;32.90;50.10
26541;DHT22;14206;50.202;10.948;2023-06-26T14:21:14;33.00;50.10
26541;DHT22;14206;50.202;10.948;2023-06-26T14:23:41;33.10;50.20
26541;DHT22;14206;50.202;10.948;2023-06-26T14:26:08;33.20;50.60
26541;DHT22;14206;50.202;10.948;2023-06-26T14:28:35;33.40;50.30
26541;DHT22;14206;50.202;10.948;2023-06-26T14:31:02;33.40;49.50
26541;DHT22;14206;50.202;10.948;2023-06-26T14:33:29;33.40;50.30
26541;DHT22;14206;50.202;10.948;2023-06-26T14:35:56;33.40;49.60
26541;DHT22;14206;50.202;10.948;2023-06-26T14:38:22;33.30;49.90
26541;DHT22;14206;50.202;10.948;2023-06-26T14:40:49;33.20;50.00
26541;DHT22;14206;50.202;10.948;2023-06-26T14:43:17;33.20;50.20
26541;DHT22;14206;50.202;10.948;2023-06-26T14:45:44;33.10;50.60
26541;DHT22;14206;50.202;10.948;2023-06-26T14:48:11;33.00;51.50
26541;DHT22;14206;50.202;10.948;2023-06-26T14:50:38;32.90;50.30
26541;DHT22;14206;50.202;10.948;2023-06-26T14:53:06;32.90;50.70
26541;DHT22;14206;50.202;10.948;2023-06-26T14:55:33;32.90;50.50
26541;DHT22;14206;50.202;10.948;2023-06-26T14:58:00;32.70;50.50
26541;DHT22;14206;50.202;10.948;2023-06-26T15:00:28;32.60;50.00
26541;DHT22;14206;50.202;10.948;2023-06-26T15:02:55;32.50;51.40
26541;DHT22;14206;50.202;10.948;2023-06-26T15:05:28;32.30;51.30
26541;DHT22;14206;50.202;10.948;2023-06-26T15:07:55;32.10;52.40
26541;DHT22;14206;50.202;10.948;2023-06-26T15:10:22;32.10;52.50
26541;DHT22;14206;50.202;10.948;2023-06-26T15:12:50;32.10;52.90
26541;DHT22;14206;50.202;10.948;2023-06-26T15:15:18;32.10;53.10
26541;DHT22;14206;50.202;10.948;2023-06-26T15:17:46;32.10;53.40
26541;DHT22;14206;50.202;10.948;2023-06-26T15:20:20;32.00;53.30
26541;DHT22;14206;50.202;10.948;2023-06-26T15:22:46;31.90;53.40
26541;DHT22;14206;50.202;10.948;2023-06-26T15:25:13;31.90;54.80
26541;DHT22;14206;50.202;10.948;2023-06-26T15:27:40;31.80;54.20
26541;DHT22;14206;50.202;10.948;2023-06-26T15:30:07;31.80;54.40
26541;DHT22;14206;50.202;10.948;2023-06-26T15:32:34;31.70;54.20
26541;DHT22;14206;50.202;10.948;2023-06-26T15:35:02;31.70;55.00
26541;DHT22;14206;50.202;10.948;2023-06-26T15:37:29;31.70;55.30
26541;DHT22;14206;50.202;10.948;2023-06-26T15:39:56;31.80;54.70
26541;DHT22;14206;50.202;10.948;2023-06-26T15:42:27;31.90;55.00
26541;DHT22;14206;50.202;10.948;2023-06-26T15:44:55;32.00;54.80